sensor_id;sensor_type;location;lat;lon;timestamp;temperature;humidity
55785;DHT22;41709;52.536;5.688;2023-06-24T00:00:03;20.00;69.60
55785;DHT22;41709;52.536;5.688;2023-06-24T00:02:33;20.00;69.80
55785;DHT22;41709;52.536;5.688;2023-06-24T00:05:02;19.90;70.00
55785;DHT22;41709;52.536;5.688;2023-06-24T00:07:29;19.90;70.10
55785;DHT22;41709;52.536;5.688;2023-06-24T00:09:54;19.90;70.40
55785;DHT22;41709;52.536;5.688;2023-06-24T00:12:20;19.80;70.80
55785;DHT22;41709;52.536;5.688;2023-06-24T00:14:46;19.80;70.80
55785;DHT22;41709;52.536;5.688;2023-06-24T00:17:12;19.80;70.80
55785;DHT22;41709;52.536;5.688;2023-06-24T00:19:38;19.70;70.50
55785;DHT22;41709;52.536;5.688;2023-06-24T00:22:03;19.70;70.50
55785;DHT22;41709;52.536;5.688;2023-06-24T00:24:29;19.70;70.40
55785;DHT22;41709;52.536;5.688;2023-06-24T00:26:56;19.60;70.40
55785;DHT22;41709;52.536;5.688;2023-06-24T00:29:21;19.60;70.70
55785;DHT22;41709;52.536;5.688;2023-06-24T00:31:47;19.50;70.50
55785;DHT22;41709;52.536;5.688;2023-06-24T00:34:13;19.50;70.70
55785;DHT22;41709;52.536;5.688;2023-06-24T00:36:39;19.50;71.70
55785;DHT22;41709;52.536;5.688;2023-06-24T00:39:05;19.40;71.00
55785;DHT22;41709;52.536;5.688;2023-06-24T00:41:32;19.40;71.00
55785;DHT22;41709;52.536;5.688;2023-06-24T00:43:59;19.40;71.00
55785;DHT22;41709;52.536;5.688;2023-06-24T00:46:25;19.40;71.20
55785;DHT22;41709;52.536;5.688;2023-06-24T00:48:55;19.30;71.20
55785;DHT22;41709;52.536;5.688;2023-06-24T00:51:22;19.30;71.40
55785;DHT22;41709;52.536;5.688;2023-06-24T00:53:52;19.30;71.90
55785;DHT22;41709;52.536;5.688;2023-06-24T00:56:20;19.20;72.00
55785;DHT22;41709;52.536;5.688;2023-06-24T00:58:47;19.30;72.20
55785;DHT22;41709;52.536;5.688;2023-06-24T01:01:12;19.20;72.40
55785;DHT22;41709;52.536;5.688;2023-06-24T01:03:40;19.10;72.70
55785;DHT22;41709;52.536;5.688;2023-06-24T01:06:05;19.10;72.80
55785;DHT22;41709;52.536;5.688;2023-06-24T01:08:31;19.10;72.90
55785;DHT22;41709;52.536;5.688;2023-06-24T01:10:57;19.10;73.10
55785;DHT22;41709;52.536;5.688;2023-06-24T01:13:22;19.00;73.30
55785;DHT22;41709;52.536;5.688;2023-06-24T01:15:49;19.00;73.80
55785;DHT22;41709;52.536;5.688;2023-06-24T01:18:34;19.00;74.10
55785;DHT22;41709;52.536;5.688;2023-06-24T01:21:06;19.00;74.00
55785;DHT22;41709;52.536;5.688;2023-06-24T01:34:59;19.00;74.70
55785;DHT22;41709;52.536;5.688;2023-06-24T01:37:32;18.90;75.00
55785;DHT22;41709;52.536;5.688;2023-06-24T01:40:38;18.80;75.50
55785;DHT22;41709;52.536;5.688;2023-06-24T01:43:08;18.80;75.70
55785;DHT22;41709;52.536;5.688;2023-06-24T01:45:41;18.80;76.20
55785;DHT22;41709;52.536;5.688;2023-06-24T01:48:19;18.70;76.40
55785;DHT22;41709;52.536;5.688;2023-06-24T01:53:23;18.60;76.10
55785;DHT22;41709;52.536;5.688;2023-06-24T01:55:50;18.60;76.40
55785;DHT22;41709;52.536;5.688;2023-06-24T01:58:17;18.60;76.40
55785;DHT22;41709;52.536;5.688;2023-06-24T02:00:43;18.50;76.30
55785;DHT22;41709;52.536;5.688;2023-06-24T02:03:10;18.50;76.40
55785;DHT22;41709;52.536;5.688;2023-06-24T02:05:37;18.50;76.50
55785;DHT22;41709;52.536;5.688;2023-06-24T02:08:07;18.40;76.50
55785;DHT22;41709;52.536;5.688;2023-06-24T02:10:34;18.40;76.50
55785;DHT22;41709;52.536;5.688;2023-06-24T02:13:02;18.40;76.50
55785;DHT22;41709;52.536;5.688;2023-06-24T02:15:29;18.40;76.50
55785;DHT22;41709;52.536;5.688;2023-06-24T02:17:55;18.30;76.60
55785;DHT22;41709;52.536;5.688;2023-06-24T02:20:22;18.30;76.70
55785;DHT22;41709;52.536;5.688;2023-06-24T02:22:53;18.30;76.90
55785;DHT22;41709;52.536;5.688;2023-06-24T02:25:19;18.30;76.90
55785;DHT22;41709;52.536;5.688;2023-06-24T02:27:45;18.20;77.30
55785;DHT22;41709;52.536;5.688;2023-06-24T02:30:12;18.20;77.50
55785;DHT22;41709;52.536;5.688;2023-06-24T02:32:38;18.20;77.80
55785;DHT22;41709;52.536;5.688;2023-06-24T02:35:04;18.30;77.90
55785;DHT22;41709;52.536;5.688;2023-06-24T02:37:30;18.20;77.90
55785;DHT22;41709;52.536;5.688;2023-06-24T02:39:56;18.20;77.90
55785;DHT22;41709;52.536;5.688;2023-06-24T02:42:22;18.20;77.90
55785;DHT22;41709;52.536;5.688;2023-06-24T02:44:48;18.20;77.90
55785;DHT22;41709;52.536;5.688;2023-06-24T02:47:14;18.20;78.30
55785;DHT22;41709;52.536;5.688;2023-06-24T02:49:42;18.20;78.50
55785;DHT22;41709;52.536;5.688;2023-06-24T02:52:12;18.20;78.60
55785;DHT22;41709;52.536;5.688;2023-06-24T02:54:38;18.20;78.60
55785;DHT22;41709;52.536;5.688;2023-06-24T02:57:05;18.20;78.70
55785;DHT22;41709;52.536;5.688;2023-06-24T02:59:32;18.20;78.90
55785;DHT22;41709;52.536;5.688;2023-06-24T03:01:58;18.20;78.90
55785;DHT22;41709;52.536;5.688;2023-06-24T03:04:25;18.20;78.60
55785;DHT22;41709;52.536;5.688;2023-06-24T03:06:51;18.20;78.60
55785;DHT22;41709;52.536;5.688;2023-06-24T03:09:18;18.20;78.60
55785;DHT22;41709;52.536;5.688;2023-06-24T03:11:44;18.20;78.90
55785;DHT22;41709;52.536;5.688;2023-06-24T03:14:11;18.20;78.80
55785;DHT22;41709;52.536;5.688;2023-06-24T03:16:36;18.20;79.10
55785;DHT22;41709;52.536;5.688;2023-06-24T03:19:06;18.20;79.40
55785;DHT22;41709;52.536;5.688;2023-06-24T03:21:32;18.20;79.60
55785;DHT22;41709;52.536;5.688;2023-06-24T03:23:58;18.20;79.80
55785;DHT22;41709;52.536;5.688;2023-06-24T03:26:31;18.20;79.90
55785;DHT22;41709;52.536;5.688;2023-06-24T03:28:58;18.10;80.00
55785;DHT22;41709;52.536;5.688;2023-06-24T03:31:24;18.10;80.10
55785;DHT22;41709;52.536;5.688;2023-06-24T03:33:49;18.10;80.50
55785;DHT22;41709;52.536;5.688;2023-06-24T03:36:15;18.10;80.50
55785;DHT22;41709;52.536;5.688;2023-06-24T03:38:41;18.00;80.40
55785;DHT22;41709;52.536;5.688;2023-06-24T03:41:06;18.00;80.40
55785;DHT22;41709;52.536;5.688;2023-06-24T03:43:32;18.00;80.40
55785;DHT22;41709;52.536;5.688;2023-06-24T03:45:57;18.00;80.60
55785;DHT22;41709;52.536;5.688;2023-06-24T03:48:23;18.00;80.50
55785;DHT22;41709;52.536;5.688;2023-06-24T03:50:49;17.90;80.30
55785;DHT22;41709;52.536;5.688;2023-06-24T03:53:14;18.00;80.70
55785;DHT22;41709;52.536;5.688;2023-06-24T03:55:40;17.90;81.00
55785;DHT22;41709;52.536;5.688;2023-06-24T03:58:05;17.90;81.20
55785;DHT22;41709;52.536;5.688;2023-06-24T04:00:31;17.90;81.10
55785;DHT22;41709;52.536;5.688;2023-06-24T04:02:57;17.90;81.20
55785;DHT22;41709;52.536;5.688;2023-06-24T04:05:26;17.90;81.60
55785;DHT22;41709;52.536;5.688;2023-06-24T04:07:52;17.90;81.80
55785;DHT22;41709;52.536;5.688;2023-06-24T04:10:19;17.90;82.10
55785;DHT22;41709;52.536;5.688;2023-06-24T04:12:45;18.00;82.30
55785;DHT22;41709;52.536;5.688;2023-06-24T04:15:11;18.00;82.40
55785;DHT22;41709;52.536;5.688;2023-06-24T04:17:37;18.00;82.50
55785;DHT22;41709;52.536;5.688;2023-06-24T04:20:03;18.00;82.50
55785;DHT22;41709;52.536;5.688;2023-06-24T04:22:32;18.00;82.50
55785;DHT22;41709;52.536;5.688;2023-06-24T04:24:57;18.00;82.50
55785;DHT22;41709;52.536;5.688;2023-06-24T04:27:23;18.10;82.70
55785;DHT22;41709;52.536;5.688;2023-06-24T04:29:49;18.10;82.70
55785;DHT22;41709;52.536;5.688;2023-06-24T04:32:14;18.10;82.80
55785;DHT22;41709;52.536;5.688;2023-06-24T04:34:40;18.10;82.60
55785;DHT22;41709;52.536;5.688;2023-06-24T04:37:05;18.20;82.50
55785;DHT22;41709;52.536;5.688;2023-06-24T04:39:31;18.20;82.30
55785;DHT22;41709;52.536;5.688;2023-06-24T04:41:57;18.30;82.10
55785;DHT22;41709;52.536;5.688;2023-06-24T04:44:22;18.20;81.60
55785;DHT22;41709;52.536;5.688;2023-06-24T04:46:48;18.30;81.70
55785;DHT22;41709;52.536;5.688;2023-06-24T04:49:13;18.40;81.50
55785;DHT22;41709;52.536;5.688;2023-06-24T04:51:39;18.40;80.80
55785;DHT22;41709;52.536;5.688;2023-06-24T04:54:06;18.40;80.50
55785;DHT22;41709;52.536;5.688;2023-06-24T04:56:33;18.50;80.20
55785;DHT22;41709;52.536;5.688;2023-06-24T04:59:00;18.50;79.80
55785;DHT22;41709;52.536;5.688;2023-06-24T05:01:26;18.50;79.40
55785;DHT22;41709;52.536;5.688;2023-06-24T05:03:51;18.60;78.90
55785;DHT22;41709;52.536;5.688;2023-06-24T05:06:17;18.70;78.70
55785;DHT22;41709;52.536;5.688;2023-06-24T05:08:43;18.70;78.20
55785;DHT22;41709;52.536;5.688;2023-06-24T05:11:08;18.70;78.20
55785;DHT22;41709;52.536;5.688;2023-06-24T05:13:34;18.80;78.10
55785;DHT22;41709;52.536;5.688;2023-06-24T05:15:59;18.80;77.70
55785;DHT22;41709;52.536;5.688;2023-06-24T05:18:25;18.90;77.70
55785;DHT22;41709;52.536;5.688;2023-06-24T05:20:50;18.90;77.10
55785;DHT22;41709;52.536;5.688;2023-06-24T05:23:16;19.00;77.00
55785;DHT22;41709;52.536;5.688;2023-06-24T05:25:41;19.10;76.90
55785;DHT22;41709;52.536;5.688;2023-06-24T05:28:07;19.10;76.60
55785;DHT22;41709;52.536;5.688;2023-06-24T05:30:32;19.20;76.40
55785;DHT22;41709;52.536;5.688;2023-06-24T05:32:58;19.20;76.70
55785;DHT22;41709;52.536;5.688;2023-06-24T05:35:24;19.30;76.50
55785;DHT22;41709;52.536;5.688;2023-06-24T05:37:49;19.40;76.40
55785;DHT22;41709;52.536;5.688;2023-06-24T05:40:15;19.40;76.10
55785;DHT22;41709;52.536;5.688;2023-06-24T05:42:41;19.40;76.20
55785;DHT22;41709;52.536;5.688;2023-06-24T05:45:07;19.50;76.50
55785;DHT22;41709;52.536;5.688;2023-06-24T05:47:33;19.50;75.90
55785;DHT22;41709;52.536;5.688;2023-06-24T05:49:58;19.60;76.10
55785;DHT22;41709;52.536;5.688;2023-06-24T05:52:24;19.60;76.00
55785;DHT22;41709;52.536;5.688;2023-06-24T05:54:50;19.70;76.00
55785;DHT22;41709;52.536;5.688;2023-06-24T05:57:15;19.80;75.50
55785;DHT22;41709;52.536;5.688;2023-06-24T05:59:41;19.90;75.70
55785;DHT22;41709;52.536;5.688;2023-06-24T06:02:06;20.00;75.30
55785;DHT22;41709;52.536;5.688;2023-06-24T06:04:32;20.10;75.10
55785;DHT22;41709;52.536;5.688;2023-06-24T06:06:58;20.10;75.20
55785;DHT22;41709;52.536;5.688;2023-06-24T06:09:23;20.20;74.40
55785;DHT22;41709;52.536;5.688;2023-06-24T06:11:49;20.40;74.40
55785;DHT22;41709;52.536;5.688;2023-06-24T06:14:15;20.30;74.90
55785;DHT22;41709;52.536;5.688;2023-06-24T06:16:40;20.40;73.80
55785;DHT22;41709;52.536;5.688;2023-06-24T06:19:06;20.50;75.70
55785;DHT22;41709;52.536;5.688;2023-06-24T06:21:31;20.50;74.10
55785;DHT22;41709;52.536;5.688;2023-06-24T06:23:57;20.50;75.40
55785;DHT22;41709;52.536;5.688;2023-06-24T06:26:23;20.50;75.00
55785;DHT22;41709;52.536;5.688;2023-06-24T06:28:48;20.50;73.60
55785;DHT22;41709;52.536;5.688;2023-06-24T06:31:15;20.50;74.50
55785;DHT22;41709;52.536;5.688;2023-06-24T06:33:41;20.50;75.50
55785;DHT22;41709;52.536;5.688;2023-06-24T06:36:06;20.50;73.60
55785;DHT22;41709;52.536;5.688;2023-06-24T06:38:33;20.50;72.70
55785;DHT22;41709;52.536;5.688;2023-06-24T06:40:59;20.50;73.10
55785;DHT22;41709;52.536;5.688;2023-06-24T06:43:25;20.50;73.60
55785;DHT22;41709;52.536;5.688;2023-06-24T06:45:50;20.50;73.50
55785;DHT22;41709;52.536;5.688;2023-06-24T06:48:16;20.50;74.20
55785;DHT22;41709;52.536;5.688;2023-06-24T06:50:41;20.50;74.60
55785;DHT22;41709;52.536;5.688;2023-06-24T06:53:07;20.50;74.00
55785;DHT22;41709;52.536;5.688;2023-06-24T06:55:33;20.50;73.20
55785;DHT22;41709;52.536;5.688;2023-06-24T06:57:58;20.50;73.70
55785;DHT22;41709;52.536;5.688;2023-06-24T07:00:24;20.60;74.90
55785;DHT22;41709;52.536;5.688;2023-06-24T07:02:49;20.60;74.50
55785;DHT22;41709;52.536;5.688;2023-06-24T07:05:15;20.70;73.80
55785;DHT22;41709;52.536;5.688;2023-06-24T07:07:41;20.80;73.10
55785;DHT22;41709;52.536;5.688;2023-06-24T07:10:08;20.90;73.50
55785;DHT22;41709;52.536;5.688;2023-06-24T07:12:33;20.90;73.70
55785;DHT22;41709;52.536;5.688;2023-06-24T07:14:59;21.00;73.50
55785;DHT22;41709;52.536;5.688;2023-06-24T07:17:24;21.10;71.90
55785;DHT22;41709;52.536;5.688;2023-06-24T07:19:50;21.10;73.10
55785;DHT22;41709;52.536;5.688;2023-06-24T07:22:15;21.20;71.70
55785;DHT22;41709;52.536;5.688;2023-06-24T07:24:41;21.30;71.70
55785;DHT22;41709;52.536;5.688;2023-06-24T07:27:07;21.30;71.20
55785;DHT22;41709;52.536;5.688;2023-06-24T07:29:33;21.40;71.30
55785;DHT22;41709;52.536;5.688;2023-06-24T07:31:59;21.50;71.60
55785;DHT22;41709;52.536;5.688;2023-06-24T07:34:24;21.50;71.50
55785;DHT22;41709;52.536;5.688;2023-06-24T07:36:50;21.60;70.50
55785;DHT22;41709;52.536;5.688;2023-06-24T07:39:16;21.70;70.60
55785;DHT22;41709;52.536;5.688;2023-06-24T07:41:42;21.80;71.00
55785;DHT22;41709;52.536;5.688;2023-06-24T07:44:08;22.00;69.60
55785;DHT22;41709;52.536;5.688;2023-06-24T07:46:34;22.00;70.10
55785;DHT22;41709;52.536;5.688;2023-06-24T07:49:00;22.00;70.00
55785;DHT22;41709;52.536;5.688;2023-06-24T07:51:26;22.20;70.50
55785;DHT22;41709;52.536;5.688;2023-06-24T07:53:52;22.30;68.90
55785;DHT22;41709;52.536;5.688;2023-06-24T07:56:18;22.30;68.10
55785;DHT22;41709;52.536;5.688;2023-06-24T07:58:43;22.40;68.60
55785;DHT22;41709;52.536;5.688;2023-06-24T08:01:09;22.50;67.80
55785;DHT22;41709;52.536;5.688;2023-06-24T08:03:34;22.50;67.20
55785;DHT22;41709;52.536;5.688;2023-06-24T08:06:02;22.60;68.00
55785;DHT22;41709;52.536;5.688;2023-06-24T08:08:28;22.60;68.40
55785;DHT22;41709;52.536;5.688;2023-06-24T08:10:53;22.60;67.30
55785;DHT22;41709;52.536;5.688;2023-06-24T08:13:19;22.70;67.20
55785;DHT22;41709;52.536;5.688;2023-06-24T08:15:45;22.70;67.50
55785;DHT22;41709;52.536;5.688;2023-06-24T08:18:10;22.70;67.20
55785;DHT22;41709;52.536;5.688;2023-06-24T08:20:36;22.80;68.20
55785;DHT22;41709;52.536;5.688;2023-06-24T08:23:01;22.80;68.00
55785;DHT22;41709;52.536;5.688;2023-06-24T08:25:27;22.90;68.10
55785;DHT22;41709;52.536;5.688;2023-06-24T08:27:53;22.90;67.40
55785;DHT22;41709;52.536;5.688;2023-06-24T08:30:18;23.00;66.70
55785;DHT22;41709;52.536;5.688;2023-06-24T08:32:44;23.00;67.30
55785;DHT22;41709;52.536;5.688;2023-06-24T08:35:10;23.10;66.00
55785;DHT22;41709;52.536;5.688;2023-06-24T08:37:37;23.10;67.20
55785;DHT22;41709;52.536;5.688;2023-06-24T08:40:03;23.20;67.90
55785;DHT22;41709;52.536;5.688;2023-06-24T08:42:32;23.20;67.60
55785;DHT22;41709;52.536;5.688;2023-06-24T08:44:58;23.30;69.00
55785;DHT22;41709;52.536;5.688;2023-06-24T08:47:24;23.40;67.20
55785;DHT22;41709;52.536;5.688;2023-06-24T08:49:53;23.40;66.80
55785;DHT22;41709;52.536;5.688;2023-06-24T08:52:25;23.40;66.70
55785;DHT22;41709;52.536;5.688;2023-06-24T08:54:52;23.50;66.60
55785;DHT22;41709;52.536;5.688;2023-06-24T08:57:20;23.50;66.20
55785;DHT22;41709;52.536;5.688;2023-06-24T08:59:46;23.50;67.20
55785;DHT22;41709;52.536;5.688;2023-06-24T09:02:12;23.50;67.50
55785;DHT22;41709;52.536;5.688;2023-06-24T09:04:39;23.60;66.10
55785;DHT22;41709;52.536;5.688;2023-06-24T09:07:05;23.60;66.70
55785;DHT22;41709;52.536;5.688;2023-06-24T09:09:31;23.70;66.30
55785;DHT22;41709;52.536;5.688;2023-06-24T09:11:58;23.70;66.20
55785;DHT22;41709;52.536;5.688;2023-06-24T09:14:25;23.80;66.20
55785;DHT22;41709;52.536;5.688;2023-06-24T09:16:59;23.90;67.50
55785;DHT22;41709;52.536;5.688;2023-06-24T09:19:29;23.90;65.90
55785;DHT22;41709;52.536;5.688;2023-06-24T09:22:02;24.00;66.10
55785;DHT22;41709;52.536;5.688;2023-06-24T09:24:31;24.00;66.00
55785;DHT22;41709;52.536;5.688;2023-06-24T09:26:56;24.10;66.50
55785;DHT22;41709;52.536;5.688;2023-06-24T09:29:26;24.10;65.90
55785;DHT22;41709;52.536;5.688;2023-06-24T09:31:52;24.20;65.70
55785;DHT22;41709;52.536;5.688;2023-06-24T09:34:19;24.20;65.80
55785;DHT22;41709;52.536;5.688;2023-06-24T09:36:55;24.30;67.10
55785;DHT22;41709;52.536;5.688;2023-06-24T09:39:22;24.30;66.30
55785;DHT22;41709;52.536;5.688;2023-06-24T09:41:54;24.40;65.80
55785;DHT22;41709;52.536;5.688;2023-06-24T09:44:19;24.40;65.30
55785;DHT22;41709;52.536;5.688;2023-06-24T09:46:45;24.50;67.20
55785;DHT22;41709;52.536;5.688;2023-06-24T09:49:11;24.50;65.90
55785;DHT22;41709;52.536;5.688;2023-06-24T09:51:47;24.60;65.00
55785;DHT22;41709;52.536;5.688;2023-06-24T09:54:14;24.60;63.50
55785;DHT22;41709;52.536;5.688;2023-06-24T09:56:43;24.70;63.60
55785;DHT22;41709;52.536;5.688;2023-06-24T09:59:12;24.70;66.60
55785;DHT22;41709;52.536;5.688;2023-06-24T10:01:40;24.80;64.70
55785;DHT22;41709;52.536;5.688;2023-06-24T10:04:06;24.90;63.20
55785;DHT22;41709;52.536;5.688;2023-06-24T10:06:35;24.90;63.40
55785;DHT22;41709;52.536;5.688;2023-06-24T10:09:01;25.10;63.80
55785;DHT22;41709;52.536;5.688;2023-06-24T10:11:27;25.00;63.10
55785;DHT22;41709;52.536;5.688;2023-06-24T10:13:53;25.10;63.40
55785;DHT22;41709;52.536;5.688;2023-06-24T10:16:20;25.10;64.00
55785;DHT22;41709;52.536;5.688;2023-06-24T10:18:45;25.10;62.20
55785;DHT22;41709;52.536;5.688;2023-06-24T10:21:11;25.20;62.60
55785;DHT22;41709;52.536;5.688;2023-06-24T10:23:42;25.20;62.20
55785;DHT22;41709;52.536;5.688;2023-06-24T10:26:30;25.30;62.40
55785;DHT22;41709;52.536;5.688;2023-06-24T10:47:40;25.60;61.00
55785;DHT22;41709;52.536;5.688;2023-06-24T10:50:07;25.60;60.70
55785;DHT22;41709;52.536;5.688;2023-06-24T10:52:38;25.60;59.70
55785;DHT22;41709;52.536;5.688;2023-06-24T10:55:04;25.60;59.90
55785;DHT22;41709;52.536;5.688;2023-06-24T10:57:29;25.60;59.40
55785;DHT22;41709;52.536;5.688;2023-06-24T10:59:56;25.60;61.80
55785;DHT22;41709;52.536;5.688;2023-06-24T11:02:24;25.50;60.20
55785;DHT22;41709;52.536;5.688;2023-06-24T11:07:18;25.60;60.60
55785;DHT22;41709;52.536;5.688;2023-06-24T11:09:55;25.60;61.30
55785;DHT22;41709;52.536;5.688;2023-06-24T11:12:30;25.60;61.90
55785;DHT22;41709;52.536;5.688;2023-06-24T11:14:57;25.60;61.90
55785;DHT22;41709;52.536;5.688;2023-06-24T11:17:27;25.70;62.20
55785;DHT22;41709;52.536;5.688;2023-06-24T11:19:54;25.60;61.60
55785;DHT22;41709;52.536;5.688;2023-06-24T11:22:20;25.60;61.80
55785;DHT22;41709;52.536;5.688;2023-06-24T11:24:46;25.70;60.70
55785;DHT22;41709;52.536;5.688;2023-06-24T11:27:11;25.70;61.20
55785;DHT22;41709;52.536;5.688;2023-06-24T11:29:38;25.80;63.00
55785;DHT22;41709;52.536;5.688;2023-06-24T11:32:07;25.80;59.70
55785;DHT22;41709;52.536;5.688;2023-06-24T11:34:33;25.70;60.60
55785;DHT22;41709;52.536;5.688;2023-06-24T11:36:58;25.80;58.70
55785;DHT22;41709;52.536;5.688;2023-06-24T11:39:34;25.90;58.60
55785;DHT22;41709;52.536;5.688;2023-06-24T11:42:00;25.90;58.50
55785;DHT22;41709;52.536;5.688;2023-06-24T11:44:25;26.00;60.30
55785;DHT22;41709;52.536;5.688;2023-06-24T11:46:51;26.00;59.90
55785;DHT22;41709;52.536;5.688;2023-06-24T11:49:17;26.10;59.60
55785;DHT22;41709;52.536;5.688;2023-06-24T11:51:48;26.10;58.40
55785;DHT22;41709;52.536;5.688;2023-06-24T11:54:15;26.10;58.20
55785;DHT22;41709;52.536;5.688;2023-06-24T11:56:43;25.80;60.20
55785;DHT22;41709;52.536;5.688;2023-06-24T11:59:23;25.70;60.20
55785;DHT22;41709;52.536;5.688;2023-06-24T12:01:58;25.80;59.90
55785;DHT22;41709;52.536;5.688;2023-06-24T12:04:31;25.90;59.90
55785;DHT22;41709;52.536;5.688;2023-06-24T12:06:58;26.00;59.90
55785;DHT22;41709;52.536;5.688;2023-06-24T12:09:24;26.00;60.20
55785;DHT22;41709;52.536;5.688;2023-06-24T12:11:50;26.00;60.10
55785;DHT22;41709;52.536;5.688;2023-06-24T12:14:16;25.90;60.20
55785;DHT22;41709;52.536;5.688;2023-06-24T12:16:42;25.80;60.40
55785;DHT22;41709;52.536;5.688;2023-06-24T12:19:08;25.90;59.60
55785;DHT22;41709;52.536;5.688;2023-06-24T12:21:34;26.00;61.20
55785;DHT22;41709;52.536;5.688;2023-06-24T12:24:00;26.00;61.80
55785;DHT22;41709;52.536;5.688;2023-06-24T12:26:26;26.00;58.80
55785;DHT22;41709;52.536;5.688;2023-06-24T12:28:54;26.00;59.70
55785;DHT22;41709;52.536;5.688;2023-06-24T12:31:20;26.00;60.10
55785;DHT22;41709;52.536;5.688;2023-06-24T12:33:46;26.00;59.90
55785;DHT22;41709;52.536;5.688;2023-06-24T12:36:12;26.10;60.00
55785;DHT22;41709;52.536;5.688;2023-06-24T12:38:37;26.10;59.60
55785;DHT22;41709;52.536;5.688;2023-06-24T12:41:04;26.10;58.10
55785;DHT22;41709;52.536;5.688;2023-06-24T12:43:29;26.20;58.10
55785;DHT22;41709;52.536;5.688;2023-06-24T12:45:55;26.30;54.40
55785;DHT22;41709;52.536;5.688;2023-06-24T12:48:21;26.40;57.50
55785;DHT22;41709;52.536;5.688;2023-06-24T12:50:46;26.50;58.00
55785;DHT22;41709;52.536;5.688;2023-06-24T12:53:14;26.60;56.30
55785;DHT22;41709;52.536;5.688;2023-06-24T12:55:41;26.70;58.90
55785;DHT22;41709;52.536;5.688;2023-06-24T12:58:07;26.80;55.70
55785;DHT22;41709;52.536;5.688;2023-06-24T13:00:33;26.90;56.70
55785;DHT22;41709;52.536;5.688;2023-06-24T13:02:58;26.90;58.30
55785;DHT22;41709;52.536;5.688;2023-06-24T13:05:24;27.00;55.50
55785;DHT22;41709;52.536;5.688;2023-06-24T13:07:50;27.20;55.40
55785;DHT22;41709;52.536;5.688;2023-06-24T13:10:16;27.40;58.50
55785;DHT22;41709;52.536;5.688;2023-06-24T13:12:41;27.50;58.30
55785;DHT22;41709;52.536;5.688;2023-06-24T13:15:07;27.60;56.70
55785;DHT22;41709;52.536;5.688;2023-06-24T13:17:35;27.50;57.50
55785;DHT22;41709;52.536;5.688;2023-06-24T13:20:02;27.30;57.60
55785;DHT22;41709;52.536;5.688;2023-06-24T13:22:30;27.30;60.00
55785;DHT22;41709;52.536;5.688;2023-06-24T13:24:56;27.30;58.70
55785;DHT22;41709;52.536;5.688;2023-06-24T13:27:21;27.40;58.00
55785;DHT22;41709;52.536;5.688;2023-06-24T13:29:47;27.50;57.30
55785;DHT22;41709;52.536;5.688;2023-06-24T13:32:13;27.50;59.90
55785;DHT22;41709;52.536;5.688;2023-06-24T13:34:39;27.70;58.60
55785;DHT22;41709;52.536;5.688;2023-06-24T13:37:04;27.60;56.80
55785;DHT22;41709;52.536;5.688;2023-06-24T13:39:30;27.50;57.40
55785;DHT22;41709;52.536;5.688;2023-06-24T13:41:57;27.50;58.40
55785;DHT22;41709;52.536;5.688;2023-06-24T13:44:22;27.50;56.70
55785;DHT22;41709;52.536;5.688;2023-06-24T13:46:49;27.40;59.40
55785;DHT22;41709;52.536;5.688;2023-06-24T13:49:15;27.20;58.00
55785;DHT22;41709;52.536;5.688;2023-06-24T13:51:41;27.10;57.90
55785;DHT22;41709;52.536;5.688;2023-06-24T13:54:07;27.00;58.30
55785;DHT22;41709;52.536;5.688;2023-06-24T13:56:33;26.90;58.00
55785;DHT22;41709;52.536;5.688;2023-06-24T13:58:58;26.90;58.10
55785;DHT22;41709;52.536;5.688;2023-06-24T14:01:25;27.00;59.80
55785;DHT22;41709;52.536;5.688;2023-06-24T14:03:51;27.00;59.80
55785;DHT22;41709;52.536;5.688;2023-06-24T14:06:18;27.00;59.10
55785;DHT22;41709;52.536;5.688;2023-06-24T14:08:45;26.90;57.90
55785;DHT22;41709;52.536;5.688;2023-06-24T14:11:10;27.00;59.10
55785;DHT22;41709;52.536;5.688;2023-06-24T14:13:37;27.20;59.60
55785;DHT22;41709;52.536;5.688;2023-06-24T14:16:03;27.40;58.80
55785;DHT22;41709;52.536;5.688;2023-06-24T14:18:29;27.60;57.60
55785;DHT22;41709;52.536;5.688;2023-06-24T14:21:01;27.50;57.80
55785;DHT22;41709;52.536;5.688;2023-06-24T14:23:28;27.70;58.20
55785;DHT22;41709;52.536;5.688;2023-06-24T14:25:54;27.90;58.30
55785;DHT22;41709;52.536;5.688;2023-06-24T14:28:20;28.00;56.40
55785;DHT22;41709;52.536;5.688;2023-06-24T14:30:46;27.80;58.20
55785;DHT22;41709;52.536;5.688;2023-06-24T14:33:12;27.70;59.40
55785;DHT22;41709;52.536;5.688;2023-06-24T14:35:38;27.90;57.40
55785;DHT22;41709;52.536;5.688;2023-06-24T14:38:04;28.00;58.00
55785;DHT22;41709;52.536;5.688;2023-06-24T14:40:30;27.80;57.00
55785;DHT22;41709;52.536;5.688;2023-06-24T14:42:56;27.70;58.00
55785;DHT22;41709;52.536;5.688;2023-06-24T14:45:21;27.80;57.40
55785;DHT22;41709;52.536;5.688;2023-06-24T14:47:47;27.90;57.40
55785;DHT22;41709;52.536;5.688;2023-06-24T14:50:13;28.00;58.10
55785;DHT22;41709;52.536;5.688;2023-06-24T14:52:39;27.90;59.50
55785;DHT22;41709;52.536;5.688;2023-06-24T14:55:05;27.70;60.80
55785;DHT22;41709;52.536;5.688;2023-06-24T14:57:31;27.60;58.90
55785;DHT22;41709;52.536;5.688;2023-06-24T14:59:56;27.40;60.80
55785;DHT22;41709;52.536;5.688;2023-06-24T15:02:22;27.40;59.80
55785;DHT22;41709;52.536;5.688;2023-06-24T15:04:47;27.60;60.40
55785;DHT22;41709;52.536;5.688;2023-06-24T15:07:13;27.50;61.10
55785;DHT22;41709;52.536;5.688;2023-06-24T15:09:38;27.60;60.20
55785;DHT22;41709;52.536;5.688;2023-06-24T15:12:04;27.60;59.10
55785;DHT22;41709;52.536;5.688;2023-06-24T15:14:30;27.60;61.20
55785;DHT22;41709;52.536;5.688;2023-06-24T15:16:56;27.40;61.10
55785;DHT22;41709;52.536;5.688;2023-06-24T15:19:23;27.30;60.30
55785;DHT22;41709;52.536;5.688;2023-06-24T15:21:49;27.30;59.80
55785;DHT22;41709;52.536;5.688;2023-06-24T15:24:15;27.10;59.00
55785;DHT22;41709;52.536;5.688;2023-06-24T15:26:40;27.10;59.20
55785;DHT22;41709;52.536;5.688;2023-06-24T15:29:06;27.10;59.70
55785;DHT22;41709;52.536;5.688;2023-06-24T15:31:32;27.10;57.80
55785;DHT22;41709;52.536;5.688;2023-06-24T15:33:57;27.10;59.10
55785;DHT22;41709;52.536;5.688;2023-06-24T15:36:23;27.10;59.30
55785;DHT22;41709;52.536;5.688;2023-06-24T15:38:52;27.10;59.20
55785;DHT22;41709;52.536;5.688;2023-06-24T15:41:18;27.20;59.40
55785;DHT22;41709;52.536;5.688;2023-06-24T15:43:43;27.40;58.30
55785;DHT22;41709;52.536;5.688;2023-06-24T15:46:09;27.40;59.30
55785;DHT22;41709;52.536;5.688;2023-06-24T15:48:35;27.40;58.40
55785;DHT22;41709;52.536;5.688;2023-06-24T15:51:02;27.40;57.10
55785;DHT22;41709;52.536;5.688;2023-06-24T15:53:27;27.30;58.50
55785;DHT22;41709;52.536;5.688;2023-06-24T15:55:53;27.20;57.30
55785;DHT22;41709;52.536;5.688;2023-06-24T15:58:19;27.20;59.10
55785;DHT22;41709;52.536;5.688;2023-06-24T16:00:44;27.10;58.20